sensor_id;sensor_type;location;lat;lon;timestamp;pressure;altitude;pressure_sealevel;temperature;humidity
60427;BME280;46274;47.168;27.604;2022-12-07T00:05:09;99758.50;;;0.79;91.86
60427;BME280;46274;47.168;27.604;2022-12-07T00:11:50;99720.81;;;0.61;91.70
60427;BME280;46274;47.168;27.604;2022-12-07T00:18:09;99575.25;;;-0.30;92.01
60427;BME280;46274;47.168;27.604;2022-12-07T00:24:15;99751.69;;;0.97;91.74
60427;BME280;46274;47.168;27.604;2022-12-07T00:31:10;99655.16;;;0.15;91.78
60427;BME280;46274;47.168;27.604;2022-12-07T00:37:53;99747.09;;;0.99;91.55
60427;BME280;46274;47.168;27.604;2022-12-07T00:44:11;99755.72;;;0.92;91.14
60427;BME280;46274;47.168;27.604;2022-12-07T00:50:42;99745.78;;;0.94;91.36
60427;BME280;46274;47.168;27.604;2022-12-07T00:57:44;99743.09;;;1.16;90.69
60427;BME280;46274;47.168;27.604;2022-12-07T01:04:00;99487.16;;;-0.50;90.53
60427;BME280;46274;47.168;27.604;2022-12-07T01:10:30;99760.00;;;1.26;90.70
60427;BME280;46274;47.168;27.604;2022-12-07T01:17:03;99609.88;;;0.04;90.71
60427;BME280;46274;47.168;27.604;2022-12-07T01:23:34;99698.00;;;0.79;90.66
60427;BME280;46274;47.168;27.604;2022-12-07T01:29:44;99766.22;;;1.16;90.47
60427;BME280;46274;47.168;27.604;2022-12-07T01:42:24;99750.53;;;1.34;89.73
60427;BME280;46274;47.168;27.604;2022-12-07T01:48:55;99733.78;;;1.43;89.24
60427;BME280;46274;47.168;27.604;2022-12-07T01:55:19;99746.66;;;1.38;89.59
60427;BME280;46274;47.168;27.604;2022-12-07T02:01:54;99707.66;;;1.03;89.65
60427;BME280;46274;47.168;27.604;2022-12-07T02:15:00;99586.78;;;0.59;89.13
60427;BME280;46274;47.168;27.604;2022-12-07T02:21:52;99727.50;;;1.33;89.43
60427;BME280;46274;47.168;27.604;2022-12-07T02:28:35;99722.00;;;1.02;90.38
60427;BME280;46274;47.168;27.604;2022-12-07T02:42:30;99724.63;;;1.24;89.61
60427;BME280;46274;47.168;27.604;2022-12-07T02:49:14;99730.19;;;1.21;90.03
60427;BME280;46274;47.168;27.604;2022-12-07T02:55:39;99722.44;;;1.18;89.80
60427;BME280;46274;47.168;27.604;2022-12-07T03:02:00;99661.31;;;0.72;89.79
60427;BME280;46274;47.168;27.604;2022-12-07T03:14:52;99720.78;;;1.06;90.83
60427;BME280;46274;47.168;27.604;2022-12-07T03:28:42;99717.13;;;1.07;90.91
60427;BME280;46274;47.168;27.604;2022-12-07T03:35:24;99699.59;;;0.93;91.31
60427;BME280;46274;47.168;27.604;2022-12-07T03:42:03;99722.47;;;1.07;91.62
60427;BME280;46274;47.168;27.604;2022-12-07T03:48:35;99714.47;;;1.07;91.65
60427;BME280;46274;47.168;27.604;2022-12-07T03:55:20;99672.28;;;1.01;91.21
60427;BME280;46274;47.168;27.604;2022-12-07T04:02:11;99692.91;;;0.99;92.23
60427;BME280;46274;47.168;27.604;2022-12-07T04:08:27;99686.22;;;1.04;91.80
60427;BME280;46274;47.168;27.604;2022-12-07T04:14:44;99701.78;;;1.31;90.30
60427;BME280;46274;47.168;27.604;2022-12-07T04:21:16;99632.38;;;0.56;92.17
60427;BME280;46274;47.168;27.604;2022-12-07T04:27:37;99692.56;;;1.36;90.85
60427;BME280;46274;47.168;27.604;2022-12-07T04:41:06;99609.50;;;0.97;89.62
60427;BME280;46274;47.168;27.604;2022-12-07T04:54:42;99710.66;;;1.32;90.73
60427;BME280;46274;47.168;27.604;2022-12-07T05:02:05;99518.94;;;0.19;90.73
60427;BME280;46274;47.168;27.604;2022-12-07T05:08:41;99697.53;;;0.85;93.08
60427;BME280;46274;47.168;27.604;2022-12-07T05:22:48;99546.13;;;0.46;90.38
60427;BME280;46274;47.168;27.604;2022-12-07T05:29:19;99693.09;;;1.18;91.17
60427;BME280;46274;47.168;27.604;2022-12-07T05:35:33;99709.44;;;1.25;90.88
60427;BME280;46274;47.168;27.604;2022-12-07T05:42:09;99709.78;;;1.31;90.93
60427;BME280;46274;47.168;27.604;2022-12-07T05:55:53;99724.00;;;1.21;90.57
60427;BME280;46274;47.168;27.604;2022-12-07T06:16:15;99736.97;;;1.25;89.89
60427;BME280;46274;47.168;27.604;2022-12-07T06:22:49;99738.59;;;1.17;92.42
60427;BME280;46274;47.168;27.604;2022-12-07T06:29:25;99719.09;;;0.82;92.39
60427;BME280;46274;47.168;27.604;2022-12-07T06:36:08;99747.47;;;0.95;92.52
60427;BME280;46274;47.168;27.604;2022-12-07T06:42:44;99757.53;;;1.02;92.32
60427;BME280;46274;47.168;27.604;2022-12-07T06:49:28;99453.28;;;-0.81;92.40
60427;BME280;46274;47.168;27.604;2022-12-07T06:56:14;99579.31;;;0.53;89.95
60427;BME280;46274;47.168;27.604;2022-12-07T07:02:44;99570.22;;;0.55;88.46
60427;BME280;46274;47.168;27.604;2022-12-07T07:09:27;99624.03;;;0.93;88.75
60427;BME280;46274;47.168;27.604;2022-12-07T07:16:09;99614.91;;;0.63;89.78
60427;BME280;46274;47.168;27.604;2022-12-07T07:22:56;99726.66;;;1.64;88.29
60427;BME280;46274;47.168;27.604;2022-12-07T07:29:00;99686.66;;;1.21;89.14
60427;BME280;46274;47.168;27.604;2022-12-07T07:42:20;99748.06;;;1.53;90.78
60427;BME280;46274;47.168;27.604;2022-12-07T07:48:46;99581.63;;;0.46;89.76
60427;BME280;46274;47.168;27.604;2022-12-07T07:54:59;99785.06;;;1.90;88.75
60427;BME280;46274;47.168;27.604;2022-12-07T08:01:14;99789.81;;;1.86;89.06
60427;BME280;46274;47.168;27.604;2022-12-07T08:07:23;99786.00;;;2.00;88.62
60427;BME280;46274;47.168;27.604;2022-12-07T08:13:58;99763.41;;;1.72;89.00
60427;BME280;46274;47.168;27.604;2022-12-07T08:34:28;99784.41;;;1.77;89.46
60427;BME280;46274;47.168;27.604;2022-12-07T08:40:39;99777.28;;;1.55;89.67
60427;BME280;46274;47.168;27.604;2022-12-07T08:47:13;99802.47;;;1.84;89.50
60427;BME280;46274;47.168;27.604;2022-12-07T08:53:43;99768.97;;;1.48;90.28
60427;BME280;46274;47.168;27.604;2022-12-07T09:00:08;99799.28;;;1.47;89.56
60427;BME280;46274;47.168;27.604;2022-12-07T09:06:14;99714.41;;;1.29;89.84
60427;BME280;46274;47.168;27.604;2022-12-07T09:12:44;99692.38;;;1.16;89.58
60427;BME280;46274;47.168;27.604;2022-12-07T09:19:18;99547.63;;;0.27;89.27
60427;BME280;46274;47.168;27.604;2022-12-07T09:25:41;99796.84;;;1.87;89.53
60427;BME280;46274;47.168;27.604;2022-12-07T09:31:47;99729.59;;;1.61;88.61
60427;BME280;46274;47.168;27.604;2022-12-07T09:37:58;99773.66;;;1.88;88.30
60427;BME280;46274;47.168;27.604;2022-12-07T09:44:26;99753.66;;;2.03;87.62
60427;BME280;46274;47.168;27.604;2022-12-07T09:50:39;99754.63;;;1.81;88.75
60427;BME280;46274;47.168;27.604;2022-12-07T09:56:53;99773.97;;;1.73;87.53
60427;BME280;46274;47.168;27.604;2022-12-07T10:03:22;99627.66;;;1.35;87.48
60427;BME280;46274;47.168;27.604;2022-12-07T10:10:38;99769.59;;;1.72;87.79
60427;BME280;46274;47.168;27.604;2022-12-07T10:17:38;99756.69;;;1.78;88.16
60427;BME280;46274;47.168;27.604;2022-12-07T10:24:14;99677.66;;;1.54;88.11
60427;BME280;46274;47.168;27.604;2022-12-07T10:31:04;99720.28;;;1.77;89.32
60427;BME280;46274;47.168;27.604;2022-12-07T10:37:55;99716.91;;;1.74;89.05
60427;BME280;46274;47.168;27.604;2022-12-07T10:44:37;99715.81;;;1.98;89.26
60427;BME280;46274;47.168;27.604;2022-12-07T11:05:11;99703.69;;;1.73;90.00
60427;BME280;46274;47.168;27.604;2022-12-07T11:18:07;99671.63;;;1.94;90.51
60427;BME280;46274;47.168;27.604;2022-12-07T11:24:17;99644.56;;;2.08;89.77
60427;BME280;46274;47.168;27.604;2022-12-07T11:37:25;99617.91;;;1.66;91.44
60427;BME280;46274;47.168;27.604;2022-12-07T11:44:07;99631.75;;;2.02;90.40
60427;BME280;46274;47.168;27.604;2022-12-07T11:56:39;99655.81;;;2.43;88.19
60427;BME280;46274;47.168;27.604;2022-12-07T12:02:57;99676.78;;;2.78;88.14
60427;BME280;46274;47.168;27.604;2022-12-07T12:22:20;99614.34;;;2.48;87.89
60427;BME280;46274;47.168;27.604;2022-12-07T12:29:00;99660.81;;;2.97;86.95
60427;BME280;46274;47.168;27.604;2022-12-07T12:35:35;99673.72;;;2.82;87.45
60427;BME280;46274;47.168;27.604;2022-12-07T12:41:55;99685.47;;;3.11;87.39
60427;BME280;46274;47.168;27.604;2022-12-07T12:48:30;99685.75;;;3.27;86.87
60427;BME280;46274;47.168;27.604;2022-12-07T13:01:39;99563.19;;;3.11;86.20
60427;BME280;46274;47.168;27.604;2022-12-07T13:08:19;99678.88;;;3.83;85.80
60427;BME280;46274;47.168;27.604;2022-12-07T13:27:56;99653.34;;;3.69;84.74
60427;BME280;46274;47.168;27.604;2022-12-07T13:41:34;99695.53;;;3.67;85.00
60427;BME280;46274;47.168;27.604;2022-12-07T13:47:55;99675.06;;;3.37;85.54
60427;BME280;46274;47.168;27.604;2022-12-07T13:54:30;99669.41;;;3.30;85.10
60427;BME280;46274;47.168;27.604;2022-12-07T14:00:56;99627.13;;;2.85;84.98
60427;BME280;46274;47.168;27.604;2022-12-07T14:22:40;99628.41;;;2.50;84.72
60427;BME280;46274;47.168;27.604;2022-12-07T14:29:31;99672.19;;;2.18;86.59
60427;BME280;46274;47.168;27.604;2022-12-07T14:43:32;99678.50;;;1.75;87.23
60427;BME280;46274;47.168;27.604;2022-12-07T14:50:03;99661.66;;;1.54;87.52
60427;BME280;46274;47.168;27.604;2022-12-07T15:03:57;99675.06;;;1.43;88.05
60427;BME280;46274;47.168;27.604;2022-12-07T15:10:25;99702.28;;;1.25;87.05
60427;BME280;46274;47.168;27.604;2022-12-07T15:16:44;99669.50;;;1.35;86.49
60427;BME280;46274;47.168;27.604;2022-12-07T15:23:19;99566.19;;;0.61;86.13
60427;BME280;46274;47.168;27.604;2022-12-07T15:29:49;99674.22;;;0.99;84.79
60427;BME280;46274;47.168;27.604;2022-12-07T15:36:27;99706.16;;;1.21;86.04
60427;BME280;46274;47.168;27.604;2022-12-07T15:49:46;99705.91;;;0.70;86.00
60427;BME280;46274;47.168;27.604;2022-12-07T15:56:42;99692.94;;;0.76;85.45
60427;BME280;46274;47.168;27.604;2022-12-07T16:02:59;99704.13;;;0.36;86.44
60427;BME280;46274;47.168;27.604;2022-12-07T16:09:42;99717.78;;;0.65;85.64
60427;BME280;46274;47.168;27.604;2022-12-07T16:15:49;99708.31;;;0.28;86.21
60427;BME280;46274;47.168;27.604;2022-12-07T16:22:59;99535.22;;;-0.86;86.50
60427;BME280;46274;47.168;27.604;2022-12-07T16:29:38;99734.63;;;0.43;85.79
60427;BME280;46274;47.168;27.604;2022-12-07T16:36:24;99704.78;;;-0.07;85.29
60427;BME280;46274;47.168;27.604;2022-12-07T16:42:53;99700.34;;;0.16;86.31
60427;BME280;46274;47.168;27.604;2022-12-07T16:49:36;99710.25;;;0.03;85.27
60427;BME280;46274;47.168;27.604;2022-12-07T16:56:02;99738.47;;;0.17;84.78
60427;BME280;46274;47.168;27.604;2022-12-07T17:02:50;99742.81;;;-0.29;86.04
60427;BME280;46274;47.168;27.604;2022-12-07T17:09:05;99721.38;;;-0.38;84.92
60427;BME280;46274;47.168;27.604;2022-12-07T17:37:53;99746.09;;;-1.47;89.11
60427;BME280;46274;47.168;27.604;2022-12-07T17:44:32;99779.88;;;-1.36;88.70
60427;BME280;46274;47.168;27.604;2022-12-07T17:50:59;99780.47;;;-0.70;87.07
60427;BME280;46274;47.168;27.604;2022-12-07T17:57:47;99729.91;;;-0.94;86.17
60427;BME280;46274;47.168;27.604;2022-12-07T18:04:35;99674.41;;;-1.85;87.24
60427;BME280;46274;47.168;27.604;2022-12-07T18:11:21;99767.19;;;-1.07;87.60
60427;BME280;46274;47.168;27.604;2022-12-07T18:18:01;99759.56;;;-0.75;85.89
60427;BME280;46274;47.168;27.604;2022-12-07T18:24:13;99790.06;;;-0.43;84.76
60427;BME280;46274;47.168;27.604;2022-12-07T18:30:41;99793.38;;;-0.29;83.94
60427;BME280;46274;47.168;27.604;2022-12-07T18:37:18;99733.78;;;-1.11;85.81
60427;BME280;46274;47.168;27.604;2022-12-07T18:43:47;99767.91;;;-0.68;84.07
60427;BME280;46274;47.168;27.604;2022-12-07T18:50:17;99734.41;;;-0.95;84.85
60427;BME280;46274;47.168;27.604;2022-12-07T18:56:44;99792.28;;;-0.37;83.72
60427;BME280;46274;47.168;27.604;2022-12-07T19:09:21;99649.47;;;-2.08;84.92
60427;BME280;46274;47.168;27.604;2022-12-07T19:15:41;99786.56;;;-1.82;89.12
60427;BME280;46274;47.168;27.604;2022-12-07T19:21:52;99790.41;;;-1.35;87.03
60427;BME280;46274;47.168;27.604;2022-12-07T19:28:07;99758.09;;;-1.41;87.15
60427;BME280;46274;47.168;27.604;2022-12-07T19:34:22;99777.72;;;-1.05;85.53
60427;BME280;46274;47.168;27.604;2022-12-07T19:40:44;99742.78;;;-1.38;85.54
60427;BME280;46274;47.168;27.604;2022-12-07T19:47:05;99794.16;;;-0.88;84.71
60427;BME280;46274;47.168;27.604;2022-12-07T19:53:11;99786.03;;;-0.25;84.25
60427;BME280;46274;47.168;27.604;2022-12-07T19:59:47;99739.28;;;-1.51;87.29
60427;BME280;46274;47.168;27.604;2022-12-07T20:06:16;99758.09;;;-1.41;87.08
60427;BME280;46274;47.168;27.604;2022-12-07T20:12:39;99780.66;;;-1.60;88.86
60427;BME280;46274;47.168;27.604;2022-12-07T20:19:07;99800.09;;;-0.84;86.66
60427;BME280;46274;47.168;27.604;2022-12-07T20:25:55;99684.66;;;-1.55;86.82
60427;BME280;46274;47.168;27.604;2022-12-07T20:39:44;99789.13;;;-0.79;86.21
60427;BME280;46274;47.168;27.604;2022-12-07T20:46:11;99819.22;;;-0.66;85.46
60427;BME280;46274;47.168;27.604;2022-12-07T20:52:18;99812.91;;;-0.65;85.93
60427;BME280;46274;47.168;27.604;2022-12-07T20:58:25;99798.94;;;-0.56;85.51
60427;BME280;46274;47.168;27.604;2022-12-07T21:04:51;99816.22;;;-0.61;85.13
60427;BME280;46274;47.168;27.604;2022-12-07T21:11:10;99713.06;;;-1.68;87.43
60427;BME280;46274;47.168;27.604;2022-12-07T21:17:17;99821.41;;;-0.97;87.86
60427;BME280;46274;47.168;27.604;2022-12-07T21:23:42;99824.53;;;-1.16;87.07
60427;BME280;46274;47.168;27.604;2022-12-07T21:30:14;99757.06;;;-1.64;86.95
60427;BME280;46274;47.168;27.604;2022-12-07T21:36:21;99830.03;;;-1.06;86.79
60427;BME280;46274;47.168;27.604;2022-12-07T21:42:55;99847.47;;;-0.52;85.05
60427;BME280;46274;47.168;27.604;2022-12-07T21:49:45;99815.88;;;-0.94;85.76
60427;BME280;46274;47.168;27.604;2022-12-07T21:56:38;99851.19;;;-0.92;84.97
60427;BME280;46274;47.168;27.604;2022-12-07T22:02:54;99832.03;;;-0.97;84.94
60427;BME280;46274;47.168;27.604;2022-12-07T22:09:29;99750.63;;;-1.23;84.44
60427;BME280;46274;47.168;27.604;2022-12-07T22:15:42;99858.72;;;-0.36;83.56
60427;BME280;46274;47.168;27.604;2022-12-07T22:21:50;99874.72;;;-1.37;87.19
60427;BME280;46274;47.168;27.604;2022-12-07T22:28:23;99836.63;;;-1.37;86.51
60427;BME280;46274;47.168;27.604;2022-12-07T22:34:51;99860.50;;;-0.73;84.40
60427;BME280;46274;47.168;27.604;2022-12-07T22:41:10;99863.28;;;-0.62;83.67
60427;BME280;46274;47.168;27.604;2022-12-07T22:47:43;99772.75;;;-1.36;83.69
60427;BME280;46274;47.168;27.604;2022-12-07T22:54:19;99800.50;;;-1.65;83.97
60427;BME280;46274;47.168;27.604;2022-12-07T23:00:23;99811.41;;;-1.95;86.59
60427;BME280;46274;47.168;27.604;2022-12-07T23:14:33;99605.19;;;-3.12;86.22
60427;BME280;46274;47.168;27.604;2022-12-07T23:21:22;99858.44;;;-1.32;85.08
60427;BME280;46274;47.168;27.604;2022-12-07T23:27:45;99862.88;;;-0.94;83.24
60427;BME280;46274;47.168;27.604;2022-12-07T23:33:52;99828.66;;;-1.50;83.42
60427;BME280;46274;47.168;27.604;2022-12-07T23:40:21;99808.06;;;-1.59;84.50
60427;BME280;46274;47.168;27.604;2022-12-07T23:47:04;99593.78;;;-2.87;83.86
60427;BME280;46274;47.168;27.604;2022-12-07T23:53:56;99692.03;;;-2.23;82.64
